createdAt,value
2023-09-17T00:00:12.668Z,14.65
2023-09-17T00:02:14.897Z,14.66
2023-09-17T00:04:16.911Z,14.67
2023-09-17T00:06:18.831Z,14.70
2023-09-17T00:08:20.510Z,14.72
2023-09-17T00:10:23.639Z,14.73
2023-09-17T00:12:26.082Z,14.73
2023-09-17T00:14:28.152Z,14.70
2023-09-17T00:16:33.154Z,14.69
2023-09-17T00:18:35.247Z,14.69
2023-09-17T00:20:36.996Z,14.70
2023-09-17T00:22:39.649Z,14.73
2023-09-17T00:24:42.557Z,14.75
2023-09-17T00:26:44.221Z,14.77
2023-09-17T00:28:45.997Z,14.78
2023-09-17T00:30:48.584Z,14.77
2023-09-17T00:32:50.340Z,14.80
2023-09-17T00:34:52.669Z,14.80
2023-09-17T00:36:54.350Z,14.80
2023-09-17T00:38:58.200Z,14.81
2023-09-17T00:41:01.438Z,14.76
2023-09-17T00:43:03.514Z,14.81
2023-09-17T00:45:06.006Z,14.78
2023-09-17T00:47:09.256Z,14.75
2023-09-17T00:49:14.921Z,14.71
2023-09-17T00:51:16.731Z,14.69
2023-09-17T00:53:18.510Z,14.67
2023-09-17T00:55:20.747Z,14.65
2023-09-17T00:57:24.035Z,14.54
2023-09-17T00:59:27.023Z,14.54
2023-09-17T01:01:29.148Z,14.47
2023-09-17T01:03:33.199Z,14.40
2023-09-17T01:05:40.460Z,14.33
2023-09-17T01:07:43.050Z,14.27
2023-09-17T01:09:45.191Z,14.23
2023-09-17T01:11:47.050Z,14.17
2023-09-17T01:14:00.182Z,14.14
2023-09-17T01:16:05.298Z,14.04
2023-09-17T01:18:10.710Z,14.11
2023-09-17T01:20:31.019Z,14.10
2023-09-17T01:22:45.497Z,14.09
2023-09-17T01:25:17.073Z,14.10
2023-09-17T01:27:22.554Z,14.03
2023-09-17T01:29:24.446Z,13.99
2023-09-17T01:31:26.289Z,13.96
2023-09-17T01:33:29.458Z,13.95
2023-09-17T01:35:34.433Z,13.94
2023-09-17T01:37:37.393Z,14.00
2023-09-17T01:39:55.180Z,14.03
2023-09-17T01:41:57.396Z,14.06
2023-09-17T01:44:00.110Z,14.11
2023-09-17T01:46:02.300Z,14.10
2023-09-17T01:48:05.116Z,14.12
2023-09-17T01:50:07.872Z,14.12
2023-09-17T01:52:11.416Z,14.15
2023-09-17T01:54:14.294Z,14.15
2023-09-17T01:56:16.017Z,14.13
2023-09-17T01:58:19.120Z,14.10
2023-09-17T02:00:21.376Z,14.05
2023-09-17T02:02:23.623Z,14.01
2023-09-17T02:04:25.848Z,14.01
2023-09-17T02:06:29.082Z,14.01
2023-09-17T02:08:31.576Z,14.01
2023-09-17T02:10:35.550Z,14.01
2023-09-17T02:12:37.402Z,14.01
2023-09-17T02:14:40.536Z,14.03
2023-09-17T02:16:44.285Z,14.02
2023-09-17T02:18:46.060Z,14.04
2023-09-17T02:20:47.948Z,14.05
2023-09-17T02:22:49.649Z,14.00
2023-09-17T02:24:51.492Z,13.96
2023-09-17T02:26:53.481Z,13.93
2023-09-17T02:28:55.913Z,13.87
2023-09-17T02:31:00.970Z,13.85
2023-09-17T02:33:02.734Z,13.85
2023-09-17T02:35:08.613Z,13.84
2023-09-17T02:37:10.671Z,13.83
2023-09-17T02:39:13.190Z,13.84
2023-09-17T02:41:15.716Z,13.85
2023-09-17T02:43:17.671Z,13.86
2023-09-17T02:45:20.386Z,13.88
2023-09-17T02:47:22.207Z,13.89
2023-09-17T02:49:25.256Z,13.89
2023-09-17T02:51:28.712Z,13.86
2023-09-17T02:53:30.735Z,13.92
2023-09-17T02:55:33.514Z,13.93
2023-09-17T02:57:35.394Z,13.93
2023-09-17T02:59:37.176Z,13.93
2023-09-17T03:01:41.447Z,13.93
2023-09-17T03:03:43.698Z,13.91
2023-09-17T03:05:48.298Z,13.91
2023-09-17T03:07:50.287Z,13.92
2023-09-17T03:09:52.332Z,13.90
2023-09-17T03:11:54.009Z,13.90
2023-09-17T03:13:56.912Z,13.87
2023-09-17T03:15:59.608Z,13.80
2023-09-17T03:18:01.464Z,13.88
2023-09-17T03:20:15.274Z,13.87
2023-09-17T03:22:18.270Z,13.86
2023-09-17T03:24:20.118Z,13.83
2023-09-17T03:26:22.771Z,13.81
2023-09-17T03:28:24.572Z,13.80
2023-09-17T03:30:28.424Z,13.78
2023-09-17T03:32:31.320Z,13.78
2023-09-17T03:34:35.429Z,13.77
2023-09-17T03:36:37.179Z,13.80
2023-09-17T03:38:39.830Z,13.80
2023-09-17T03:40:42.237Z,13.79
2023-09-17T03:42:45.093Z,13.79
2023-09-17T03:44:48.182Z,13.79
2023-09-17T03:46:50.852Z,13.77
2023-09-17T03:48:52.929Z,13.75
2023-09-17T03:50:54.870Z,13.73
2023-09-17T03:52:58.659Z,13.74
2023-09-17T03:55:00.792Z,13.79
2023-09-17T03:57:03.242Z,13.80
2023-09-17T03:59:05.494Z,13.83
2023-09-17T04:01:09.103Z,13.86
2023-09-17T04:03:11.221Z,13.90
2023-09-17T04:05:15.076Z,14.07
2023-09-17T04:07:16.887Z,14.34
2023-09-17T04:09:19.556Z,14.66
2023-09-17T04:11:22.135Z,15.00
2023-09-17T04:13:24.103Z,15.34
2023-09-17T04:15:25.943Z,15.66
2023-09-17T04:17:28.269Z,15.97
2023-09-17T04:19:33.581Z,16.24
2023-09-17T04:21:35.735Z,16.52
2023-09-17T04:23:37.433Z,16.80
2023-09-17T04:25:39.344Z,17.17
2023-09-17T04:27:43.089Z,17.57
2023-09-17T04:29:45.732Z,17.97
2023-09-17T04:31:48.409Z,18.29
2023-09-17T04:33:50.842Z,18.59
2023-09-17T04:35:58.124Z,18.88
2023-09-17T04:37:59.873Z,19.13
2023-09-17T04:40:10.433Z,19.38
2023-09-17T04:42:13.681Z,19.64
2023-09-17T04:44:15.632Z,19.92
2023-09-17T04:46:17.395Z,20.20
2023-09-17T04:48:25.540Z,20.40
2023-09-17T04:50:28.548Z,20.56
2023-09-17T04:52:30.465Z,20.69
2023-09-17T04:54:32.467Z,20.82
2023-09-17T04:56:34.213Z,20.91
2023-09-17T04:58:36.018Z,20.94
2023-09-17T05:00:40.194Z,21.03
2023-09-17T05:02:41.994Z,21.14
2023-09-17T05:04:44.514Z,21.28
2023-09-17T05:06:47.848Z,21.40
2023-09-17T05:08:50.178Z,21.56
2023-09-17T05:10:53.944Z,21.74
2023-09-17T05:12:57.993Z,21.89
2023-09-17T05:14:59.862Z,22.04
2023-09-17T05:17:03.263Z,22.18
2023-09-17T05:19:05.694Z,22.23
2023-09-17T05:21:07.729Z,22.22
2023-09-17T05:23:09.909Z,22.37
2023-09-17T05:25:12.424Z,22.43
2023-09-17T05:27:14.237Z,22.58
2023-09-17T05:29:18.479Z,22.70
2023-09-17T05:31:21.292Z,22.86
2023-09-17T05:33:24.551Z,23.01
2023-09-17T05:35:26.226Z,23.08
2023-09-17T05:37:28.971Z,23.23
2023-09-17T05:39:31.858Z,23.27
2023-09-17T05:41:33.500Z,23.17
2023-09-17T05:43:36.066Z,23.02
2023-09-17T05:45:38.467Z,22.91
2023-09-17T05:47:42.771Z,22.89
2023-09-17T05:49:44.864Z,22.93
2023-09-17T05:51:47.370Z,22.96
2023-09-17T05:53:49.471Z,22.98
2023-09-17T05:55:51.722Z,22.93
2023-09-17T05:57:53.844Z,22.96
2023-09-17T05:59:56.029Z,22.97
2023-09-17T06:01:58.827Z,23.03
2023-09-17T06:04:00.895Z,23.14
2023-09-17T06:06:04.300Z,23.21
2023-09-17T06:08:06.268Z,23.17
2023-09-17T06:10:08.830Z,23.17
2023-09-17T06:12:11.267Z,23.13
2023-09-17T06:14:13.271Z,23.01
2023-09-17T06:16:16.433Z,23.06
2023-09-17T06:18:19.045Z,23.24
2023-09-17T06:20:24.023Z,23.18
2023-09-17T06:22:27.563Z,23.12
2023-09-17T06:24:29.489Z,23.19
2023-09-17T06:26:31.162Z,23.26
2023-09-17T06:28:32.904Z,23.32
2023-09-17T06:30:34.761Z,23.28
2023-09-17T06:32:37.154Z,23.30
2023-09-17T06:34:39.181Z,23.35
2023-09-17T06:36:43.062Z,23.42
2023-09-17T06:38:45.204Z,23.32
2023-09-17T06:40:46.940Z,22.93
2023-09-17T06:42:49.372Z,22.42
2023-09-17T06:44:51.722Z,21.97
2023-09-17T06:46:53.576Z,21.56
2023-09-17T06:48:57.728Z,21.22
2023-09-17T06:50:59.429Z,20.92
2023-09-17T06:53:01.747Z,20.63
2023-09-17T06:55:06.124Z,20.40
2023-09-17T06:57:08.888Z,20.22
2023-09-17T06:59:10.669Z,20.05
2023-09-17T07:01:13.763Z,19.87
2023-09-17T07:03:15.611Z,19.73
2023-09-17T07:05:18.173Z,19.60
2023-09-17T07:07:21.274Z,19.55
2023-09-17T07:09:23.217Z,19.54
2023-09-17T07:11:24.972Z,19.57
2023-09-17T07:13:26.626Z,19.57
2023-09-17T07:15:28.597Z,19.58
2023-09-17T07:17:30.542Z,19.58
2023-09-17T07:19:35.041Z,19.56
2023-09-17T07:21:36.841Z,19.58
2023-09-17T07:23:38.580Z,19.58
2023-09-17T07:25:40.303Z,19.52
2023-09-17T07:27:42.868Z,19.46
2023-09-17T07:29:46.903Z,19.41
2023-09-17T07:31:48.734Z,19.36
2023-09-17T07:33:50.820Z,19.33
2023-09-17T07:35:54.071Z,19.33
2023-09-17T07:37:56.594Z,19.38
2023-09-17T07:40:02.473Z,19.42
2023-09-17T07:42:05.089Z,19.47
2023-09-17T07:44:06.938Z,19.52
2023-09-17T07:46:12.864Z,19.56
2023-09-17T07:48:14.889Z,19.59
2023-09-17T07:50:17.435Z,19.61
2023-09-17T07:52:19.310Z,19.65
2023-09-17T07:54:21.146Z,19.70
2023-09-17T07:56:25.153Z,19.78
2023-09-17T07:58:27.254Z,19.87
2023-09-17T08:00:29.027Z,19.93
2023-09-17T08:02:30.940Z,19.99
2023-09-17T08:04:34.687Z,20.09
2023-09-17T08:06:36.606Z,20.17
2023-09-17T08:08:38.355Z,20.24
2023-09-17T08:10:40.168Z,20.32
2023-09-17T08:12:41.968Z,20.35
2023-09-17T08:14:47.407Z,20.33
2023-09-17T08:16:50.825Z,20.34
2023-09-17T08:18:53.090Z,20.32
2023-09-17T08:20:56.073Z,20.39
2023-09-17T08:22:58.499Z,20.43
2023-09-17T08:25:00.483Z,20.46
2023-09-17T08:27:02.221Z,20.49
2023-09-17T08:29:06.593Z,20.47
2023-09-17T08:31:09.043Z,20.48
2023-09-17T08:33:12.325Z,20.57
2023-09-17T08:35:17.762Z,20.58
2023-09-17T08:37:19.515Z,20.57
2023-09-17T08:39:21.953Z,20.53
2023-09-17T08:41:24.348Z,20.53
2023-09-17T08:43:27.791Z,20.49
2023-09-17T08:45:31.522Z,20.58
2023-09-17T08:47:33.537Z,20.67
2023-09-17T08:49:37.456Z,20.73
2023-09-17T08:51:44.517Z,20.74
2023-09-17T08:54:08.840Z,20.71
2023-09-17T08:56:14.482Z,20.69
2023-09-17T08:58:19.087Z,20.80
2023-09-17T09:00:22.637Z,20.88
2023-09-17T09:02:32.854Z,20.91
2023-09-17T09:04:36.219Z,20.90
2023-09-17T09:06:39.860Z,20.91
2023-09-17T09:08:44.026Z,20.98
2023-09-17T09:10:46.373Z,21.07
2023-09-17T09:12:48.936Z,21.18
2023-09-17T09:14:51.866Z,21.30
2023-09-17T09:19:08.855Z,21.31
2023-09-17T09:21:12.177Z,21.30
2023-09-17T09:23:13.833Z,21.32
2023-09-17T09:25:17.369Z,21.32
2023-09-17T09:27:19.226Z,21.31
2023-09-17T09:29:21.241Z,21.30
2023-09-17T09:31:23.509Z,21.32
2023-09-17T09:33:26.191Z,21.34
2023-09-17T09:35:28.222Z,21.34
2023-09-17T09:37:31.639Z,21.37
2023-09-17T09:39:36.331Z,21.37
2023-09-17T09:41:38.018Z,21.38
2023-09-17T09:43:40.324Z,21.41
2023-09-17T09:45:42.314Z,21.42
2023-09-17T09:47:50.285Z,21.47
2023-09-17T09:49:52.579Z,21.54
2023-09-17T09:51:54.382Z,21.58
2023-09-17T09:53:56.883Z,21.62
2023-09-17T09:55:59.031Z,21.66
2023-09-17T09:58:00.946Z,21.70
2023-09-17T10:00:13.662Z,21.75
2023-09-17T10:02:17.499Z,21.82
2023-09-17T10:04:19.394Z,21.89
2023-09-17T10:06:22.361Z,21.92
2023-09-17T10:08:24.596Z,21.96
2023-09-17T10:10:26.289Z,22.00
2023-09-17T10:12:28.744Z,22.02
2023-09-17T10:14:31.418Z,22.05
2023-09-17T10:16:35.857Z,22.10
2023-09-17T10:18:39.911Z,22.13
2023-09-17T10:20:44.873Z,22.15
2023-09-17T10:22:48.169Z,22.19
2023-09-17T10:24:51.776Z,22.21
2023-09-17T10:26:55.433Z,22.24
2023-09-17T10:28:57.222Z,22.21
2023-09-17T10:31:00.740Z,22.16
2023-09-17T10:33:04.752Z,22.12
2023-09-17T10:35:07.798Z,22.08
2023-09-17T10:37:10.938Z,21.96
2023-09-17T10:39:15.509Z,21.96
2023-09-17T10:41:17.425Z,21.93
2023-09-17T10:43:19.854Z,21.90
2023-09-17T10:45:22.487Z,21.88
2023-09-17T10:47:25.572Z,21.86
2023-09-17T10:49:28.982Z,21.85
2023-09-17T10:51:31.381Z,21.87
2023-09-17T10:53:33.346Z,21.88
2023-09-17T10:55:41.961Z,21.91
2023-09-17T10:57:48.530Z,21.94
2023-09-17T10:59:53.100Z,21.97
2023-09-17T11:01:55.216Z,21.98
2023-09-17T11:04:15.412Z,22.00
2023-09-17T11:06:25.253Z,22.05
2023-09-17T11:08:27.705Z,22.11
2023-09-17T11:10:32.863Z,22.15
2023-09-17T11:12:36.162Z,22.22
2023-09-17T11:14:37.867Z,22.30
2023-09-17T11:16:40.022Z,22.38
2023-09-17T11:18:42.978Z,22.40
2023-09-17T11:21:05.916Z,22.32
2023-09-17T11:23:07.863Z,22.40
2023-09-17T11:25:11.458Z,22.43
2023-09-17T11:27:13.539Z,22.49
2023-09-17T11:29:16.210Z,22.54
2023-09-17T11:31:18.527Z,22.56
2023-09-17T11:33:20.395Z,22.56
2023-09-17T11:35:24.761Z,22.55
2023-09-17T11:37:26.708Z,22.55
2023-09-17T11:39:28.509Z,22.56
2023-09-17T11:41:32.482Z,22.55
2023-09-17T11:43:36.825Z,22.51
2023-09-17T11:45:40.125Z,22.47
2023-09-17T11:47:42.429Z,22.48
2023-09-17T11:49:44.312Z,22.52
2023-09-17T11:51:47.651Z,22.55
2023-09-17T11:53:55.037Z,22.56
2023-09-17T11:56:03.776Z,22.57
2023-09-17T11:58:20.923Z,22.58
2023-09-17T12:00:29.858Z,22.55
2023-09-17T12:02:31.681Z,22.56
2023-09-17T12:04:38.182Z,22.56
2023-09-17T12:06:43.426Z,22.53
2023-09-17T12:08:48.469Z,22.50
2023-09-17T12:10:54.335Z,22.47
2023-09-17T12:12:57.106Z,22.48
2023-09-17T12:14:59.973Z,22.48
2023-09-17T12:17:03.479Z,22.46
2023-09-17T12:19:17.840Z,22.48
2023-09-17T12:21:28.894Z,22.48
2023-09-17T12:23:56.188Z,22.49
2023-09-17T12:25:58.702Z,22.42
2023-09-17T12:28:00.375Z,22.48
2023-09-17T12:30:07.262Z,22.48
2023-09-17T12:32:11.463Z,22.49
2023-09-17T12:34:13.554Z,22.48
2023-09-17T12:36:15.341Z,22.49
2023-09-17T12:38:17.129Z,22.53
2023-09-17T12:40:19.069Z,22.57
2023-09-17T12:42:22.473Z,22.43
2023-09-17T12:44:27.661Z,22.60
2023-09-17T12:46:30.118Z,22.59
2023-09-17T12:48:32.086Z,22.54
2023-09-17T12:50:33.852Z,22.54
2023-09-17T12:52:35.610Z,22.52
2023-09-17T12:54:38.149Z,22.52
2023-09-17T12:56:39.974Z,22.51
2023-09-17T12:58:42.252Z,22.52
2023-09-17T13:00:43.956Z,22.54
2023-09-17T13:02:46.571Z,22.55
2023-09-17T13:04:48.376Z,22.56
2023-09-17T13:06:50.103Z,22.57
2023-09-17T13:08:52.600Z,22.54
2023-09-17T13:10:58.830Z,22.60
2023-09-17T13:13:06.974Z,22.62
2023-09-17T13:15:09.554Z,22.61
2023-09-17T13:17:11.325Z,22.63
2023-09-17T13:19:13.160Z,22.65
2023-09-17T13:21:16.768Z,22.63
2023-09-17T13:23:18.720Z,22.68
2023-09-17T13:25:21.893Z,22.68
2023-09-17T13:27:23.606Z,22.67
2023-09-17T13:29:35.021Z,22.67
2023-09-17T13:31:37.946Z,22.66
2023-09-17T13:33:40.713Z,22.65
2023-09-17T13:35:45.459Z,22.65
2023-09-17T13:37:47.692Z,22.63
2023-09-17T13:39:50.996Z,22.64
2023-09-17T13:41:57.554Z,22.64
2023-09-17T13:44:00.006Z,22.64
2023-09-17T13:46:03.232Z,22.63
2023-09-17T13:48:05.464Z,22.63
2023-09-17T13:50:07.910Z,22.61
2023-09-17T13:52:11.096Z,22.60
2023-09-17T13:54:13.470Z,22.59
2023-09-17T13:56:16.365Z,22.60
2023-09-17T13:58:19.490Z,22.62
2023-09-17T14:00:21.436Z,22.62
2023-09-17T14:02:23.307Z,22.61
2023-09-17T14:04:25.306Z,22.64
2023-09-17T14:06:27.111Z,22.64
2023-09-17T14:08:31.017Z,22.64
2023-09-17T14:10:34.896Z,22.64
2023-09-17T14:12:36.785Z,22.64
2023-09-17T14:14:40.702Z,22.66
2023-09-17T14:16:42.897Z,22.67
2023-09-17T14:18:44.680Z,22.66
2023-09-17T14:20:46.402Z,22.65
2023-09-17T14:22:48.062Z,22.63
2023-09-17T14:24:49.696Z,22.62
2023-09-17T14:26:51.325Z,22.63
2023-09-17T14:28:53.215Z,22.64
2023-09-17T14:30:55.766Z,22.64
2023-09-17T14:32:59.262Z,22.62
2023-09-17T14:35:01.198Z,22.61
2023-09-17T14:37:02.957Z,22.60
2023-09-17T14:39:04.675Z,22.58
2023-09-17T14:41:06.491Z,22.56
2023-09-17T14:43:08.295Z,22.54
2023-09-17T14:45:09.997Z,22.52
2023-09-17T14:47:11.734Z,22.53
2023-09-17T14:49:13.923Z,22.53
2023-09-17T14:51:15.560Z,22.53
2023-09-17T14:53:17.297Z,22.54
2023-09-17T14:55:19.025Z,22.54
2023-09-17T14:57:20.667Z,22.55
2023-09-17T14:59:22.632Z,22.56
2023-09-17T15:01:48.775Z,22.54
2023-09-17T15:03:46.823Z,22.54
2023-09-17T15:05:48.501Z,22.52
2023-09-17T15:07:50.273Z,22.51
2023-09-17T15:09:52.061Z,22.47
2023-09-17T15:11:53.769Z,22.46
2023-09-17T15:13:55.417Z,22.46
2023-09-17T15:15:57.195Z,22.45
2023-09-17T15:17:59.509Z,22.43
2023-09-17T15:20:01.406Z,22.41
2023-09-17T15:22:05.038Z,22.41
2023-09-17T15:24:07.054Z,22.40
2023-09-17T15:26:09.108Z,22.40
2023-09-17T15:28:11.388Z,22.38
2023-09-17T15:30:14.670Z,22.39
2023-09-17T15:32:16.668Z,22.40
2023-09-17T15:34:18.731Z,22.36
2023-09-17T15:36:20.599Z,22.37
2023-09-17T15:38:22.262Z,22.36
2023-09-17T15:40:26.080Z,22.34
2023-09-17T15:42:27.877Z,22.33
2023-09-17T15:44:29.953Z,22.31
2023-09-17T15:46:31.970Z,22.28
2023-09-17T15:48:35.831Z,22.26
2023-09-17T15:50:37.946Z,22.22
2023-09-17T15:52:39.803Z,22.18
2023-09-17T15:54:41.487Z,22.15
2023-09-17T15:56:43.426Z,22.14
2023-09-17T15:58:45.159Z,22.07
2023-09-17T16:00:47.147Z,22.11
2023-09-17T16:02:49.142Z,22.07
2023-09-17T16:04:51.551Z,22.05
2023-09-17T16:06:54.109Z,22.03
2023-09-17T16:08:56.172Z,22.00
2023-09-17T16:10:58.167Z,21.95
2023-09-17T16:13:00.231Z,21.91
2023-09-17T16:15:04.004Z,21.87
2023-09-17T16:17:06.190Z,21.83
2023-09-17T16:19:08.313Z,21.81
2023-09-17T16:21:11.955Z,21.79
2023-09-17T16:23:13.749Z,21.77
2023-09-17T16:25:15.506Z,21.73
2023-09-17T16:27:17.273Z,21.71
2023-09-17T16:29:19.024Z,21.66
2023-09-17T16:31:20.750Z,21.61
2023-09-17T16:33:22.767Z,21.55
2023-09-17T16:35:24.665Z,21.52
2023-09-17T16:37:26.817Z,21.49
2023-09-17T16:39:28.743Z,21.46
2023-09-17T16:41:31.496Z,21.42
2023-09-17T16:43:33.366Z,21.38
2023-09-17T16:45:35.198Z,21.34
2023-09-17T16:47:37.133Z,21.30
2023-09-17T16:49:39.412Z,21.28
2023-09-17T16:51:50.708Z,21.23
2023-09-17T16:53:52.556Z,21.19
2023-09-17T16:55:54.601Z,21.15
2023-09-17T16:57:56.492Z,21.10
2023-09-17T17:00:00.842Z,21.05
2023-09-17T17:02:02.936Z,21.03
2023-09-17T17:04:04.953Z,20.99
2023-09-17T17:06:07.947Z,20.95
2023-09-17T17:08:11.318Z,20.90
2023-09-17T17:10:13.291Z,20.85
2023-09-17T17:12:15.532Z,20.80
2023-09-17T17:14:17.813Z,20.74
2023-09-17T17:16:19.545Z,20.70
2023-09-17T17:18:21.324Z,20.65
2023-09-17T17:20:23.423Z,20.60
2023-09-17T17:22:26.142Z,20.58
2023-09-17T17:24:27.921Z,20.54
2023-09-17T17:26:29.858Z,20.48
2023-09-17T17:28:32.163Z,20.43
2023-09-17T17:30:34.048Z,20.41
2023-09-17T17:32:35.930Z,20.39
2023-09-17T17:34:37.643Z,20.36
2023-09-17T17:36:39.287Z,20.33
2023-09-17T17:38:41.021Z,20.30
2023-09-17T17:40:42.796Z,20.26
2023-09-17T17:42:44.706Z,20.24
2023-09-17T17:44:46.445Z,20.20
2023-09-17T17:46:48.464Z,20.17
2023-09-17T17:48:51.307Z,20.14
2023-09-17T17:50:53.833Z,20.11
2023-09-17T17:52:55.645Z,20.07
2023-09-17T17:54:57.424Z,20.04
2023-09-17T17:56:59.172Z,20.00
2023-09-17T17:59:01.015Z,19.97
2023-09-17T18:01:04.297Z,19.95
2023-09-17T18:03:06.598Z,19.92
2023-09-17T18:05:09.982Z,19.89
2023-09-17T18:07:15.583Z,19.87
2023-09-17T18:09:17.259Z,19.84
2023-09-17T18:11:19.337Z,19.83
2023-09-17T18:13:21.195Z,19.82
2023-09-17T18:15:23.288Z,19.81
2023-09-17T18:17:26.935Z,19.78
2023-09-17T18:19:28.855Z,19.74
2023-09-17T18:21:30.501Z,19.74
2023-09-17T18:23:33.334Z,19.73
2023-09-17T18:25:39.599Z,19.69
2023-09-17T18:27:42.669Z,19.70
2023-09-17T18:29:45.294Z,19.70
2023-09-17T18:31:47.992Z,19.68
2023-09-17T18:33:49.837Z,19.64
2023-09-17T18:35:52.400Z,19.63
2023-09-17T18:37:54.210Z,19.61
2023-09-17T18:39:56.365Z,19.60
2023-09-17T18:41:58.006Z,19.60
2023-09-17T18:43:59.843Z,19.60
2023-09-17T18:46:06.302Z,19.59
2023-09-17T18:48:08.211Z,19.60
2023-09-17T18:50:11.096Z,19.59
2023-09-17T18:52:13.219Z,19.58
2023-09-17T18:54:15.698Z,19.57
2023-09-17T18:56:17.918Z,19.55
2023-09-17T18:58:19.586Z,19.52
2023-09-17T19:00:25.594Z,19.49
2023-09-17T19:02:28.075Z,19.46
2023-09-17T19:04:30.518Z,19.42
2023-09-17T19:06:32.290Z,19.40
2023-09-17T19:08:36.848Z,19.36
2023-09-17T19:10:38.654Z,19.32
2023-09-17T19:12:41.353Z,19.29
2023-09-17T19:14:47.605Z,19.25
2023-09-17T19:16:49.440Z,19.22
2023-09-17T19:18:51.109Z,19.19
2023-09-17T19:21:07.422Z,19.17
2023-09-17T19:23:09.181Z,19.10
2023-09-17T19:25:14.690Z,19.00
2023-09-17T19:27:16.404Z,19.05
2023-09-17T19:29:20.773Z,19.03
2023-09-17T19:31:22.549Z,18.99
2023-09-17T19:33:24.815Z,18.95
2023-09-17T19:35:26.653Z,18.92
2023-09-17T19:37:28.418Z,18.89
2023-09-17T19:39:30.090Z,18.85
2023-09-17T19:41:34.984Z,18.83
2023-09-17T19:43:38.763Z,18.79
2023-09-17T19:45:44.922Z,18.76
2023-09-17T19:47:46.817Z,18.74
2023-09-17T19:49:48.645Z,18.72
2023-09-17T19:51:50.589Z,18.69
2023-09-17T19:53:52.527Z,18.66
2023-09-17T19:55:54.965Z,18.65
2023-09-17T19:57:56.772Z,18.63
2023-09-17T20:00:00.481Z,18.61
2023-09-17T20:02:02.389Z,18.59
2023-09-17T20:04:04.454Z,18.57
2023-09-17T20:06:06.289Z,18.51
2023-09-17T20:08:09.884Z,18.52
2023-09-17T20:10:16.239Z,18.48
2023-09-17T20:12:18.118Z,18.44
2023-09-17T20:14:20.452Z,18.44
2023-09-17T20:16:22.240Z,18.42
2023-09-17T20:18:24.323Z,18.41
2023-09-17T20:20:27.888Z,18.39
2023-09-17T20:22:30.147Z,18.36
2023-09-17T20:24:32.446Z,18.33
2023-09-17T20:26:37.397Z,18.32
2023-09-17T20:28:39.684Z,18.29
2023-09-17T20:30:42.486Z,18.27
2023-09-17T20:32:44.592Z,18.26
2023-09-17T20:34:46.879Z,18.24
2023-09-17T20:36:48.802Z,18.21
2023-09-17T20:38:51.080Z,18.19
2023-09-17T20:40:53.119Z,18.16
2023-09-17T20:42:55.156Z,18.13
2023-09-17T20:44:56.905Z,18.12
2023-09-17T20:46:59.749Z,18.10
2023-09-17T20:49:01.870Z,18.09
2023-09-17T20:51:05.193Z,18.06
2023-09-17T20:53:08.979Z,18.03
2023-09-17T20:55:10.878Z,18.02
2023-09-17T20:57:12.961Z,18.00
2023-09-17T20:59:15.431Z,17.97
2023-09-17T21:01:18.389Z,17.96
2023-09-17T21:03:20.391Z,17.94
2023-09-17T21:05:23.380Z,17.92
2023-09-17T21:07:25.827Z,17.88
2023-09-17T21:09:28.986Z,17.85
2023-09-17T21:11:30.647Z,17.84
2023-09-17T21:13:33.921Z,17.83
2023-09-17T21:15:35.577Z,17.81
2023-09-17T21:17:37.958Z,17.80
2023-09-17T21:19:40.271Z,17.81
2023-09-17T21:21:42.175Z,17.81
2023-09-17T21:23:44.674Z,17.78
2023-09-17T21:25:46.732Z,17.78
2023-09-17T21:27:48.712Z,17.76
2023-09-17T21:29:51.345Z,17.75
2023-09-17T21:31:53.143Z,17.73
2023-09-17T21:35:53.241Z,17.66
2023-09-17T21:37:55.048Z,17.64
2023-09-17T21:39:56.721Z,17.62
2023-09-17T21:42:01.048Z,17.62
2023-09-17T21:44:04.033Z,17.62
2023-09-17T21:46:05.807Z,17.59
2023-09-17T21:48:07.590Z,17.55
2023-09-17T21:50:10.121Z,17.52
2023-09-17T21:52:11.912Z,17.49
2023-09-17T21:54:13.759Z,17.45
2023-09-17T21:56:15.511Z,17.45
2023-09-17T21:58:18.059Z,17.43
2023-09-17T22:00:25.530Z,17.41
2023-09-17T22:02:28.375Z,17.39
2023-09-17T22:04:30.369Z,17.38
2023-09-17T22:06:32.233Z,17.36
2023-09-17T22:08:33.949Z,17.32
2023-09-17T22:10:36.676Z,17.31
2023-09-17T22:12:38.757Z,17.30
2023-09-17T22:14:40.422Z,17.29
2023-09-17T22:16:42.194Z,17.28
2023-09-17T22:18:43.991Z,17.27
2023-09-17T22:20:51.520Z,17.27
2023-09-17T22:22:56.927Z,17.27
2023-09-17T22:24:58.795Z,17.28
2023-09-17T22:27:00.403Z,17.28
2023-09-17T22:29:02.286Z,17.24
2023-09-17T22:31:14.116Z,17.20
2023-09-17T22:33:15.892Z,17.18
2023-09-17T22:35:19.059Z,17.18
2023-09-17T22:37:20.711Z,17.16
2023-09-17T22:39:22.940Z,17.17
2023-09-17T22:41:26.782Z,17.17
2023-09-17T22:43:28.926Z,17.13
2023-09-17T22:45:30.695Z,17.12
2023-09-17T22:47:34.185Z,17.10
2023-09-17T22:49:37.139Z,17.09
2023-09-17T22:51:38.998Z,17.06
2023-09-17T22:53:40.801Z,17.03
2023-09-17T22:55:42.491Z,17.01
2023-09-17T22:57:44.331Z,17.00
2023-09-17T22:59:46.188Z,16.99
2023-09-17T23:01:49.174Z,16.98
2023-09-17T23:03:51.027Z,16.97
2023-09-17T23:05:52.758Z,16.95
2023-09-17T23:07:54.430Z,16.93
2023-09-17T23:09:56.609Z,16.91
2023-09-17T23:11:58.887Z,16.90
2023-09-17T23:14:07.058Z,16.89
2023-09-17T23:16:09.610Z,16.88
2023-09-17T23:18:16.351Z,16.86
2023-09-17T23:20:18.108Z,16.86
2023-09-17T23:22:19.950Z,16.84
2023-09-17T23:24:23.010Z,16.83
2023-09-17T23:26:29.315Z,16.83
2023-09-17T23:28:34.528Z,16.82
2023-09-17T23:30:36.485Z,16.81
2023-09-17T23:32:38.303Z,16.81
2023-09-17T23:34:40.019Z,16.81
2023-09-17T23:36:42.269Z,16.80
2023-09-17T23:38:44.822Z,16.79
2023-09-17T23:40:46.879Z,16.78
2023-09-17T23:42:48.618Z,16.76
2023-09-17T23:44:50.865Z,16.76
2023-09-17T23:46:52.542Z,16.77
2023-09-17T23:48:54.545Z,16.77
2023-09-17T23:50:56.536Z,16.77
2023-09-17T23:52:58.795Z,16.76
2023-09-17T23:55:00.564Z,16.74
2023-09-17T23:57:02.431Z,16.73
2023-09-17T23:59:04.209Z,16.73
